sensor_id;sensor_type;location;lat;lon;timestamp;pressure;altitude;pressure_sealevel;temperature;humidity
15489;BME280;7846;48.830;9.116;2023-05-01T00:01:25;97814.38;;;13.51;65.31
15489;BME280;7846;48.830;9.116;2023-05-01T00:03:53;97826.09;;;13.48;64.68
15489;BME280;7846;48.830;9.116;2023-05-01T00:06:18;97806.91;;;13.31;64.33
15489;BME280;7846;48.830;9.116;2023-05-01T00:08:45;97814.78;;;13.40;65.48
15489;BME280;7846;48.830;9.116;2023-05-01T00:11:11;97807.06;;;13.30;65.95
15489;BME280;7846;48.830;9.116;2023-05-01T00:13:38;97802.38;;;13.09;65.92
15489;BME280;7846;48.830;9.116;2023-05-01T00:16:11;97798.28;;;13.75;64.94
15489;BME280;7846;48.830;9.116;2023-05-01T00:18:37;97791.28;;;13.83;63.72
15489;BME280;7846;48.830;9.116;2023-05-01T00:21:03;97789.66;;;13.82;63.38
15489;BME280;7846;48.830;9.116;2023-05-01T00:23:29;97786.47;;;13.86;62.81
15489;BME280;7846;48.830;9.116;2023-05-01T00:25:55;97788.41;;;13.92;62.73
15489;BME280;7846;48.830;9.116;2023-05-01T00:28:20;97792.97;;;13.84;63.11
15489;BME280;7846;48.830;9.116;2023-05-01T00:30:48;97777.16;;;13.52;64.00
15489;BME280;7846;48.830;9.116;2023-05-01T00:33:13;97777.88;;;13.69;64.16
15489;BME280;7846;48.830;9.116;2023-05-01T00:35:42;97776.94;;;14.15;63.13
15489;BME280;7846;48.830;9.116;2023-05-01T00:38:08;97777.09;;;13.84;63.30
15489;BME280;7846;48.830;9.116;2023-05-01T00:40:41;97773.25;;;14.01;63.73
15489;BME280;7846;48.830;9.116;2023-05-01T00:43:10;97769.31;;;13.82;63.47
15489;BME280;7846;48.830;9.116;2023-05-01T00:45:37;97773.56;;;14.06;63.03
15489;BME280;7846;48.830;9.116;2023-05-01T00:48:03;97769.88;;;13.92;63.06
15489;BME280;7846;48.830;9.116;2023-05-01T00:50:30;97768.25;;;13.91;62.78
15489;BME280;7846;48.830;9.116;2023-05-01T00:52:56;97764.28;;;13.72;63.48
15489;BME280;7846;48.830;9.116;2023-05-01T00:55:22;97757.78;;;13.75;64.03
15489;BME280;7846;48.830;9.116;2023-05-01T00:57:48;97761.34;;;13.67;64.09
15489;BME280;7846;48.830;9.116;2023-05-01T01:00:14;97760.28;;;13.76;63.51
15489;BME280;7846;48.830;9.116;2023-05-01T01:02:42;97759.47;;;13.76;64.51
15489;BME280;7846;48.830;9.116;2023-05-01T01:05:07;97751.22;;;13.71;63.72
15489;BME280;7846;48.830;9.116;2023-05-01T01:07:50;97747.91;;;14.07;63.41
15489;BME280;7846;48.830;9.116;2023-05-01T01:13:17;97747.31;;;13.82;64.04
15489;BME280;7846;48.830;9.116;2023-05-01T01:15:58;97745.22;;;13.77;64.47
15489;BME280;7846;48.830;9.116;2023-05-01T01:18:37;97742.78;;;14.05;63.58
15489;BME280;7846;48.830;9.116;2023-05-01T01:21:16;97741.81;;;14.06;63.61
15489;BME280;7846;48.830;9.116;2023-05-01T01:29:55;97730.66;;;13.96;64.05
15489;BME280;7846;48.830;9.116;2023-05-01T01:35:35;97729.47;;;13.84;64.14
15489;BME280;7846;48.830;9.116;2023-05-01T01:38:08;97729.66;;;13.59;64.09
15489;BME280;7846;48.830;9.116;2023-05-01T01:40:44;97728.34;;;13.78;64.54
15489;BME280;7846;48.830;9.116;2023-05-01T01:43:17;97728.44;;;13.85;64.29
15489;BME280;7846;48.830;9.116;2023-05-01T01:45:52;97728.00;;;13.96;63.80
15489;BME280;7846;48.830;9.116;2023-05-01T01:48:24;97726.81;;;13.84;64.10
15489;BME280;7846;48.830;9.116;2023-05-01T01:50:51;97731.13;;;13.99;63.41
15489;BME280;7846;48.830;9.116;2023-05-01T01:53:19;97729.38;;;13.92;63.79
15489;BME280;7846;48.830;9.116;2023-05-01T01:55:46;97726.84;;;13.98;63.90
15489;BME280;7846;48.830;9.116;2023-05-01T01:58:14;97719.44;;;14.09;63.58
15489;BME280;7846;48.830;9.116;2023-05-01T02:00:43;97728.22;;;14.09;63.73
15489;BME280;7846;48.830;9.116;2023-05-01T02:03:09;97716.84;;;13.86;64.08
15489;BME280;7846;48.830;9.116;2023-05-01T02:05:35;97717.31;;;13.89;63.68
15489;BME280;7846;48.830;9.116;2023-05-01T02:08:03;97708.47;;;13.97;63.66
15489;BME280;7846;48.830;9.116;2023-05-01T02:10:30;97705.28;;;14.01;63.89
15489;BME280;7846;48.830;9.116;2023-05-01T02:12:57;97706.97;;;13.50;64.94
15489;BME280;7846;48.830;9.116;2023-05-01T02:15:24;97699.63;;;13.90;64.39
15489;BME280;7846;48.830;9.116;2023-05-01T02:17:51;97704.75;;;13.91;64.12
15489;BME280;7846;48.830;9.116;2023-05-01T02:20:17;97693.25;;;13.84;63.65
15489;BME280;7846;48.830;9.116;2023-05-01T02:22:44;97698.25;;;13.94;64.34
15489;BME280;7846;48.830;9.116;2023-05-01T02:25:12;97690.75;;;13.97;64.03
15489;BME280;7846;48.830;9.116;2023-05-01T02:28:11;97694.59;;;13.65;64.55
15489;BME280;7846;48.830;9.116;2023-05-01T02:30:37;97692.38;;;13.31;65.36
15489;BME280;7846;48.830;9.116;2023-05-01T02:33:07;97704.81;;;13.45;65.71
15489;BME280;7846;48.830;9.116;2023-05-01T02:35:44;97696.19;;;13.51;65.80
15489;BME280;7846;48.830;9.116;2023-05-01T02:38:12;97690.75;;;13.97;64.11
15489;BME280;7846;48.830;9.116;2023-05-01T02:40:38;97684.03;;;13.95;64.03
15489;BME280;7846;48.830;9.116;2023-05-01T02:43:08;97681.91;;;14.20;64.04
15489;BME280;7846;48.830;9.116;2023-05-01T02:45:37;97686.22;;;14.06;64.14
15489;BME280;7846;48.830;9.116;2023-05-01T02:48:05;97680.16;;;14.27;63.60
15489;BME280;7846;48.830;9.116;2023-05-01T02:50:34;97681.28;;;14.33;63.66
15489;BME280;7846;48.830;9.116;2023-05-01T02:53:01;97677.44;;;13.61;65.15
15489;BME280;7846;48.830;9.116;2023-05-01T02:55:27;97673.31;;;13.59;65.27
15489;BME280;7846;48.830;9.116;2023-05-01T02:57:57;97670.59;;;13.82;65.11
15489;BME280;7846;48.830;9.116;2023-05-01T03:00:22;97668.38;;;13.55;64.76
15489;BME280;7846;48.830;9.116;2023-05-01T03:02:48;97672.31;;;13.60;64.94
15489;BME280;7846;48.830;9.116;2023-05-01T03:05:14;97669.00;;;13.43;65.17
15489;BME280;7846;48.830;9.116;2023-05-01T03:07:39;97666.09;;;13.52;64.95
15489;BME280;7846;48.830;9.116;2023-05-01T03:10:05;97667.53;;;13.40;65.34
15489;BME280;7846;48.830;9.116;2023-05-01T03:12:32;97672.56;;;13.50;65.22
15489;BME280;7846;48.830;9.116;2023-05-01T03:14:58;97671.28;;;13.23;66.03
15489;BME280;7846;48.830;9.116;2023-05-01T03:17:23;97672.97;;;13.24;66.36
15489;BME280;7846;48.830;9.116;2023-05-01T03:19:48;97662.81;;;13.04;66.36
15489;BME280;7846;48.830;9.116;2023-05-01T03:22:14;97666.78;;;13.31;66.00
15489;BME280;7846;48.830;9.116;2023-05-01T03:24:40;97667.28;;;13.04;66.82
15489;BME280;7846;48.830;9.116;2023-05-01T03:27:07;97659.84;;;13.30;65.69
15489;BME280;7846;48.830;9.116;2023-05-01T03:29:34;97664.41;;;13.37;65.83
15489;BME280;7846;48.830;9.116;2023-05-01T03:31:59;97662.97;;;13.49;65.77
15489;BME280;7846;48.830;9.116;2023-05-01T03:34:25;97659.72;;;13.47;65.22
15489;BME280;7846;48.830;9.116;2023-05-01T03:36:51;97658.91;;;13.46;65.83
15489;BME280;7846;48.830;9.116;2023-05-01T03:39:17;97663.56;;;13.89;64.62
15489;BME280;7846;48.830;9.116;2023-05-01T03:41:44;97663.91;;;13.56;65.29
15489;BME280;7846;48.830;9.116;2023-05-01T03:44:11;97654.81;;;13.88;64.58
15489;BME280;7846;48.830;9.116;2023-05-01T03:46:36;97653.13;;;13.43;65.64
15489;BME280;7846;48.830;9.116;2023-05-01T03:49:03;97651.69;;;13.55;65.19
15489;BME280;7846;48.830;9.116;2023-05-01T03:51:29;97649.66;;;13.19;66.16
15489;BME280;7846;48.830;9.116;2023-05-01T03:53:56;97646.97;;;13.04;66.80
15489;BME280;7846;48.830;9.116;2023-05-01T03:56:23;97646.63;;;13.07;67.62
15489;BME280;7846;48.830;9.116;2023-05-01T03:58:52;97644.19;;;13.44;65.83
15489;BME280;7846;48.830;9.116;2023-05-01T04:01:17;97640.75;;;13.43;65.88
15489;BME280;7846;48.830;9.116;2023-05-01T04:03:43;97644.00;;;13.45;65.70
15489;BME280;7846;48.830;9.116;2023-05-01T04:06:10;97639.66;;;13.52;65.90
15489;BME280;7846;48.830;9.116;2023-05-01T04:08:35;97638.22;;;13.65;65.27
15489;BME280;7846;48.830;9.116;2023-05-01T04:11:01;97646.31;;;13.63;65.48
15489;BME280;7846;48.830;9.116;2023-05-01T04:13:26;97648.25;;;13.69;64.86
15489;BME280;7846;48.830;9.116;2023-05-01T04:15:53;97645.88;;;13.74;65.01
15489;BME280;7846;48.830;9.116;2023-05-01T04:18:19;97640.69;;;13.81;64.59
15489;BME280;7846;48.830;9.116;2023-05-01T04:20:45;97645.97;;;13.81;64.73
15489;BME280;7846;48.830;9.116;2023-05-01T04:23:10;97644.16;;;13.82;64.99
15489;BME280;7846;48.830;9.116;2023-05-01T04:25:37;97639.88;;;13.80;64.56
15489;BME280;7846;48.830;9.116;2023-05-01T04:28:02;97636.41;;;13.95;64.72
15489;BME280;7846;48.830;9.116;2023-05-01T04:30:29;97641.50;;;14.11;64.16
15489;BME280;7846;48.830;9.116;2023-05-01T04:32:55;97639.13;;;14.01;64.50
15489;BME280;7846;48.830;9.116;2023-05-01T04:35:21;97638.41;;;13.93;64.22
15489;BME280;7846;48.830;9.116;2023-05-01T04:37:46;97635.13;;;14.06;63.83
15489;BME280;7846;48.830;9.116;2023-05-01T04:40:12;97650.69;;;14.15;63.83
15489;BME280;7846;48.830;9.116;2023-05-01T04:42:37;97642.19;;;14.20;63.64
15489;BME280;7846;48.830;9.116;2023-05-01T04:45:04;97648.16;;;14.22;63.61
15489;BME280;7846;48.830;9.116;2023-05-01T04:47:30;97645.31;;;14.23;63.44
15489;BME280;7846;48.830;9.116;2023-05-01T04:49:56;97644.47;;;14.52;62.83
15489;BME280;7846;48.830;9.116;2023-05-01T04:52:22;97636.69;;;14.87;61.53
15489;BME280;7846;48.830;9.116;2023-05-01T04:54:47;97642.94;;;14.80;61.37
15489;BME280;7846;48.830;9.116;2023-05-01T04:57:12;97646.53;;;14.93;61.31
15489;BME280;7846;48.830;9.116;2023-05-01T04:59:38;97642.53;;;15.04;60.97
15489;BME280;7846;48.830;9.116;2023-05-01T05:02:04;97648.59;;;14.76;61.70
15489;BME280;7846;48.830;9.116;2023-05-01T05:04:30;97650.97;;;14.71;61.89
15489;BME280;7846;48.830;9.116;2023-05-01T05:06:55;97646.63;;;14.64;62.31
15489;BME280;7846;48.830;9.116;2023-05-01T05:09:22;97651.09;;;14.48;62.93
15489;BME280;7846;48.830;9.116;2023-05-01T05:11:47;97657.13;;;14.57;63.10
15489;BME280;7846;48.830;9.116;2023-05-01T05:14:15;97649.75;;;14.89;62.53
15489;BME280;7846;48.830;9.116;2023-05-01T05:16:40;97647.91;;;14.89;62.33
15489;BME280;7846;48.830;9.116;2023-05-01T05:19:06;97647.78;;;14.76;62.21
15489;BME280;7846;48.830;9.116;2023-05-01T05:21:32;97649.72;;;14.67;62.33
15489;BME280;7846;48.830;9.116;2023-05-01T05:23:58;97647.19;;;14.59;62.87
15489;BME280;7846;48.830;9.116;2023-05-01T05:26:24;97642.13;;;14.64;63.16
15489;BME280;7846;48.830;9.116;2023-05-01T05:28:50;97641.72;;;14.31;63.97
15489;BME280;7846;48.830;9.116;2023-05-01T05:31:17;97645.00;;;14.48;63.05
15489;BME280;7846;48.830;9.116;2023-05-01T05:33:42;97642.31;;;14.12;64.38
15489;BME280;7846;48.830;9.116;2023-05-01T05:36:09;97647.69;;;14.18;64.24
15489;BME280;7846;48.830;9.116;2023-05-01T05:38:35;97648.53;;;14.04;64.44
15489;BME280;7846;48.830;9.116;2023-05-01T05:41:00;97649.69;;;14.01;64.17
15489;BME280;7846;48.830;9.116;2023-05-01T05:43:26;97651.00;;;13.91;64.67
15489;BME280;7846;48.830;9.116;2023-05-01T05:45:55;97648.06;;;13.86;65.30
15489;BME280;7846;48.830;9.116;2023-05-01T05:48:21;97647.59;;;13.82;65.53
15489;BME280;7846;48.830;9.116;2023-05-01T05:50:46;97649.69;;;13.87;65.17
15489;BME280;7846;48.830;9.116;2023-05-01T05:53:15;97645.63;;;13.99;64.41
15489;BME280;7846;48.830;9.116;2023-05-01T05:55:40;97650.22;;;14.26;64.38
15489;BME280;7846;48.830;9.116;2023-05-01T05:58:07;97640.91;;;14.31;64.25
15489;BME280;7846;48.830;9.116;2023-05-01T06:00:32;97655.41;;;14.35;64.54
15489;BME280;7846;48.830;9.116;2023-05-01T06:02:58;97646.75;;;14.41;65.03
15489;BME280;7846;48.830;9.116;2023-05-01T06:05:23;97655.91;;;14.09;66.70
15489;BME280;7846;48.830;9.116;2023-05-01T06:07:48;97642.06;;;13.92;67.45
15489;BME280;7846;48.830;9.116;2023-05-01T06:10:14;97656.91;;;14.08;66.36
15489;BME280;7846;48.830;9.116;2023-05-01T06:12:39;97648.03;;;14.30;66.20
15489;BME280;7846;48.830;9.116;2023-05-01T06:15:06;97648.00;;;14.60;65.77
15489;BME280;7846;48.830;9.116;2023-05-01T06:17:32;97650.91;;;13.99;67.59
15489;BME280;7846;48.830;9.116;2023-05-01T06:19:58;97651.59;;;14.52;66.33
15489;BME280;7846;48.830;9.116;2023-05-01T06:22:23;97650.44;;;14.25;66.04
15489;BME280;7846;48.830;9.116;2023-05-01T06:24:49;97645.94;;;14.55;65.81
15489;BME280;7846;48.830;9.116;2023-05-01T06:27:14;97649.47;;;14.62;65.59
15489;BME280;7846;48.830;9.116;2023-05-01T06:29:40;97650.28;;;14.63;65.24
15489;BME280;7846;48.830;9.116;2023-05-01T06:32:06;97653.03;;;14.91;64.36
15489;BME280;7846;48.830;9.116;2023-05-01T06:34:34;97652.63;;;14.94;64.70
15489;BME280;7846;48.830;9.116;2023-05-01T06:37:00;97657.44;;;14.84;65.38
15489;BME280;7846;48.830;9.116;2023-05-01T06:39:25;97657.00;;;15.23;64.13
15489;BME280;7846;48.830;9.116;2023-05-01T06:41:50;97658.81;;;15.44;62.46
15489;BME280;7846;48.830;9.116;2023-05-01T06:44:16;97653.94;;;15.76;62.08
15489;BME280;7846;48.830;9.116;2023-05-01T06:46:41;97656.22;;;15.79;62.28
15489;BME280;7846;48.830;9.116;2023-05-01T06:49:07;97651.47;;;16.02;61.76
15489;BME280;7846;48.830;9.116;2023-05-01T06:51:33;97664.81;;;16.15;61.81
15489;BME280;7846;48.830;9.116;2023-05-01T06:53:58;97664.63;;;16.24;61.17
15489;BME280;7846;48.830;9.116;2023-05-01T06:56:24;97665.53;;;15.96;61.86
15489;BME280;7846;48.830;9.116;2023-05-01T06:58:49;97672.91;;;16.42;59.23
15489;BME280;7846;48.830;9.116;2023-05-01T07:01:16;97669.66;;;16.53;59.46
15489;BME280;7846;48.830;9.116;2023-05-01T07:03:41;97672.97;;;16.55;59.76
15489;BME280;7846;48.830;9.116;2023-05-01T07:06:07;97685.56;;;16.40;59.23
15489;BME280;7846;48.830;9.116;2023-05-01T07:08:35;97679.41;;;16.33;59.93
15489;BME280;7846;48.830;9.116;2023-05-01T07:11:03;97672.78;;;16.15;60.36
15489;BME280;7846;48.830;9.116;2023-05-01T07:13:28;97669.47;;;16.07;60.86
15489;BME280;7846;48.830;9.116;2023-05-01T07:15:54;97672.38;;;16.18;61.01
15489;BME280;7846;48.830;9.116;2023-05-01T07:18:19;97681.50;;;16.44;61.14
15489;BME280;7846;48.830;9.116;2023-05-01T07:20:45;97678.84;;;16.44;61.90
15489;BME280;7846;48.830;9.116;2023-05-01T07:23:11;97673.50;;;16.92;59.64
15489;BME280;7846;48.830;9.116;2023-05-01T07:25:36;97674.81;;;17.36;56.36
15489;BME280;7846;48.830;9.116;2023-05-01T07:28:03;97672.75;;;17.71;57.17
15489;BME280;7846;48.830;9.116;2023-05-01T07:30:35;97678.38;;;18.34;55.63
15489;BME280;7846;48.830;9.116;2023-05-01T07:33:00;97680.09;;;17.23;56.88
15489;BME280;7846;48.830;9.116;2023-05-01T07:35:26;97673.97;;;17.49;57.66
15489;BME280;7846;48.830;9.116;2023-05-01T07:37:51;97665.72;;;18.17;55.40
15489;BME280;7846;48.830;9.116;2023-05-01T07:40:19;97659.16;;;18.19;54.97
15489;BME280;7846;48.830;9.116;2023-05-01T07:42:44;97665.34;;;18.06;56.04
15489;BME280;7846;48.830;9.116;2023-05-01T07:45:10;97666.31;;;18.32;54.67
15489;BME280;7846;48.830;9.116;2023-05-01T07:47:35;97666.47;;;18.89;54.60
15489;BME280;7846;48.830;9.116;2023-05-01T07:50:02;97664.19;;;19.49;52.48
15489;BME280;7846;48.830;9.116;2023-05-01T07:52:28;97661.81;;;18.77;53.53
15489;BME280;7846;48.830;9.116;2023-05-01T07:54:55;97662.78;;;18.38;54.97
15489;BME280;7846;48.830;9.116;2023-05-01T07:57:20;97658.91;;;18.34;53.54
15489;BME280;7846;48.830;9.116;2023-05-01T07:59:52;97658.31;;;19.15;52.57
15489;BME280;7846;48.830;9.116;2023-05-01T08:02:17;97656.63;;;19.21;51.67
15489;BME280;7846;48.830;9.116;2023-05-01T08:04:42;97657.47;;;18.83;53.34
15489;BME280;7846;48.830;9.116;2023-05-01T08:07:08;97654.00;;;18.76;53.18
15489;BME280;7846;48.830;9.116;2023-05-01T08:09:33;97649.78;;;19.00;52.80
15489;BME280;7846;48.830;9.116;2023-05-01T08:11:58;97653.59;;;18.79;53.39
15489;BME280;7846;48.830;9.116;2023-05-01T08:14:24;97647.94;;;19.00;52.88
15489;BME280;7846;48.830;9.116;2023-05-01T08:16:49;97648.88;;;19.13;52.25
15489;BME280;7846;48.830;9.116;2023-05-01T08:19:19;97651.41;;;19.82;50.95
15489;BME280;7846;48.830;9.116;2023-05-01T08:21:45;97655.91;;;19.64;50.38
15489;BME280;7846;48.830;9.116;2023-05-01T08:24:10;97656.84;;;19.19;51.96
15489;BME280;7846;48.830;9.116;2023-05-01T08:26:38;97653.75;;;19.47;52.22
15489;BME280;7846;48.830;9.116;2023-05-01T08:29:03;97649.97;;;19.80;50.98
15489;BME280;7846;48.830;9.116;2023-05-01T08:31:28;97660.91;;;18.90;53.10
15489;BME280;7846;48.830;9.116;2023-05-01T08:33:55;97649.00;;;20.36;49.86
15489;BME280;7846;48.830;9.116;2023-05-01T08:36:21;97649.31;;;19.66;50.60
15489;BME280;7846;48.830;9.116;2023-05-01T08:38:46;97649.00;;;19.49;50.16
15489;BME280;7846;48.830;9.116;2023-05-01T08:41:16;97644.66;;;20.35;49.64
15489;BME280;7846;48.830;9.116;2023-05-01T08:43:44;97645.94;;;19.96;50.55
15489;BME280;7846;48.830;9.116;2023-05-01T08:46:11;97649.81;;;20.37;49.34
15489;BME280;7846;48.830;9.116;2023-05-01T08:48:40;97654.97;;;19.76;49.43
15489;BME280;7846;48.830;9.116;2023-05-01T08:51:08;97645.47;;;19.80;50.45
15489;BME280;7846;48.830;9.116;2023-05-01T08:53:34;97645.28;;;19.00;50.86
15489;BME280;7846;48.830;9.116;2023-05-01T08:56:05;97645.72;;;20.34;50.32
15489;BME280;7846;48.830;9.116;2023-05-01T08:58:32;97646.03;;;18.76;51.25
15489;BME280;7846;48.830;9.116;2023-05-01T09:01:00;97640.91;;;18.68;52.71
15489;BME280;7846;48.830;9.116;2023-05-01T09:03:30;97646.75;;;19.46;50.92
15489;BME280;7846;48.830;9.116;2023-05-01T09:05:57;97644.63;;;19.80;49.48
15489;BME280;7846;48.830;9.116;2023-05-01T09:08:23;97648.00;;;20.12;49.64
15489;BME280;7846;48.830;9.116;2023-05-01T09:10:50;97643.28;;;20.14;50.29
15489;BME280;7846;48.830;9.116;2023-05-01T09:13:18;97650.31;;;20.45;49.78
15489;BME280;7846;48.830;9.116;2023-05-01T09:15:43;97651.84;;;18.53;52.27
15489;BME280;7846;48.830;9.116;2023-05-01T09:18:10;97653.44;;;18.74;52.59
15489;BME280;7846;48.830;9.116;2023-05-01T09:20:39;97647.34;;;20.17;49.42
15489;BME280;7846;48.830;9.116;2023-05-01T09:23:04;97648.00;;;19.94;50.96
15489;BME280;7846;48.830;9.116;2023-05-01T09:25:31;97650.00;;;20.35;49.80
15489;BME280;7846;48.830;9.116;2023-05-01T09:27:57;97660.56;;;20.48;48.76
15489;BME280;7846;48.830;9.116;2023-05-01T09:33:08;97650.50;;;21.22;47.05
15489;BME280;7846;48.830;9.116;2023-05-01T09:35:52;97654.88;;;21.35;47.48
15489;BME280;7846;48.830;9.116;2023-05-01T09:38:22;97653.66;;;20.59;49.26
15489;BME280;7846;48.830;9.116;2023-05-01T09:40:48;97658.22;;;19.78;50.27
15489;BME280;7846;48.830;9.116;2023-05-01T09:43:23;97648.03;;;21.09;49.50
15489;BME280;7846;48.830;9.116;2023-05-01T09:46:04;97645.47;;;21.68;48.23
15489;BME280;7846;48.830;9.116;2023-05-01T09:48:31;97642.97;;;22.13;47.67
15489;BME280;7846;48.830;9.116;2023-05-01T09:50:57;97653.22;;;23.09;46.29
15489;BME280;7846;48.830;9.116;2023-05-01T09:53:37;97641.13;;;23.57;43.52
15489;BME280;7846;48.830;9.116;2023-05-01T09:56:03;97644.41;;;22.04;46.45
15489;BME280;7846;48.830;9.116;2023-05-01T09:58:29;97646.63;;;21.48;46.52
15489;BME280;7846;48.830;9.116;2023-05-01T10:00:55;97647.31;;;20.72;48.96
15489;BME280;7846;48.830;9.116;2023-05-01T10:03:21;97645.28;;;20.37;49.22
15489;BME280;7846;48.830;9.116;2023-05-01T10:05:47;97645.56;;;20.11;48.46
15489;BME280;7846;48.830;9.116;2023-05-01T10:08:12;97644.53;;;20.12;48.34
15489;BME280;7846;48.830;9.116;2023-05-01T10:10:40;97642.19;;;21.42;46.91
15489;BME280;7846;48.830;9.116;2023-05-01T10:13:17;97645.69;;;21.90;46.35
15489;BME280;7846;48.830;9.116;2023-05-01T10:15:44;97645.59;;;20.77;48.09
15489;BME280;7846;48.830;9.116;2023-05-01T10:18:15;97649.25;;;19.73;49.17
15489;BME280;7846;48.830;9.116;2023-05-01T10:20:41;97644.75;;;20.28;49.00
15489;BME280;7846;48.830;9.116;2023-05-01T10:23:07;97653.75;;;19.72;49.76
15489;BME280;7846;48.830;9.116;2023-05-01T10:25:32;97650.38;;;20.20;48.74
15489;BME280;7846;48.830;9.116;2023-05-01T10:27:58;97648.91;;;20.24;48.61
15489;BME280;7846;48.830;9.116;2023-05-01T10:30:27;97644.03;;;20.58;48.28
15489;BME280;7846;48.830;9.116;2023-05-01T10:32:56;97648.22;;;19.74;50.07
15489;BME280;7846;48.830;9.116;2023-05-01T10:35:25;97654.31;;;19.81;50.25
15489;BME280;7846;48.830;9.116;2023-05-01T10:38:00;97644.22;;;19.58;51.49
15489;BME280;7846;48.830;9.116;2023-05-01T10:43:28;97648.69;;;20.08;49.74
15489;BME280;7846;48.830;9.116;2023-05-01T10:51:16;97650.44;;;19.77;51.71
15489;BME280;7846;48.830;9.116;2023-05-01T10:53:45;97639.25;;;19.37;51.48
15489;BME280;7846;48.830;9.116;2023-05-01T10:59:01;97640.69;;;21.05;49.47
15489;BME280;7846;48.830;9.116;2023-05-01T11:01:43;97648.31;;;20.22;50.14
15489;BME280;7846;48.830;9.116;2023-05-01T11:12:09;97639.44;;;20.77;48.63
15489;BME280;7846;48.830;9.116;2023-05-01T11:20:04;97633.13;;;19.79;50.15
15489;BME280;7846;48.830;9.116;2023-05-01T11:22:30;97627.66;;;20.48;49.69
15489;BME280;7846;48.830;9.116;2023-05-01T11:24:56;97631.22;;;20.42;49.20
15489;BME280;7846;48.830;9.116;2023-05-01T11:27:22;97626.38;;;20.69;49.05
15489;BME280;7846;48.830;9.116;2023-05-01T11:29:48;97631.09;;;20.55;48.13
15489;BME280;7846;48.830;9.116;2023-05-01T11:32:18;97633.13;;;21.13;47.93
15489;BME280;7846;48.830;9.116;2023-05-01T11:34:43;97623.53;;;20.94;47.43
15489;BME280;7846;48.830;9.116;2023-05-01T11:37:11;97635.28;;;20.81;48.04
15489;BME280;7846;48.830;9.116;2023-05-01T11:39:46;97618.69;;;21.68;47.72
15489;BME280;7846;48.830;9.116;2023-05-01T11:42:12;97621.94;;;20.93;47.82
15489;BME280;7846;48.830;9.116;2023-05-01T11:44:37;97616.53;;;22.29;46.20
15489;BME280;7846;48.830;9.116;2023-05-01T11:47:03;97618.91;;;21.66;46.04
15489;BME280;7846;48.830;9.116;2023-05-01T11:49:31;97619.19;;;21.11;47.45
15489;BME280;7846;48.830;9.116;2023-05-01T11:51:57;97626.06;;;20.77;48.18
15489;BME280;7846;48.830;9.116;2023-05-01T11:54:26;97622.97;;;21.34;47.27
15489;BME280;7846;48.830;9.116;2023-05-01T11:56:59;97617.84;;;21.91;46.47
15489;BME280;7846;48.830;9.116;2023-05-01T11:59:25;97619.19;;;22.40;45.62
15489;BME280;7846;48.830;9.116;2023-05-01T12:01:50;97615.00;;;22.09;46.73
15489;BME280;7846;48.830;9.116;2023-05-01T12:04:26;97619.66;;;21.32;47.28
15489;BME280;7846;48.830;9.116;2023-05-01T12:06:52;97621.19;;;20.86;47.10
15489;BME280;7846;48.830;9.116;2023-05-01T12:09:19;97606.66;;;20.51;48.32
15489;BME280;7846;48.830;9.116;2023-05-01T12:11:46;97604.81;;;21.83;46.89
15489;BME280;7846;48.830;9.116;2023-05-01T12:14:14;97602.19;;;22.23;46.43
15489;BME280;7846;48.830;9.116;2023-05-01T12:16:43;97608.63;;;22.62;45.68
15489;BME280;7846;48.830;9.116;2023-05-01T12:19:12;97609.84;;;23.51;43.05
15489;BME280;7846;48.830;9.116;2023-05-01T12:21:38;97602.38;;;22.45;44.81
15489;BME280;7846;48.830;9.116;2023-05-01T12:26:35;97601.47;;;23.64;43.05
15489;BME280;7846;48.830;9.116;2023-05-01T12:29:02;97611.47;;;22.44;44.83
15489;BME280;7846;48.830;9.116;2023-05-01T12:31:28;97611.13;;;22.40;45.46
15489;BME280;7846;48.830;9.116;2023-05-01T12:34:02;97612.13;;;23.93;43.01
15489;BME280;7846;48.830;9.116;2023-05-01T12:36:29;97615.06;;;23.07;43.96
15489;BME280;7846;48.830;9.116;2023-05-01T12:41:31;97619.09;;;22.64;45.38
15489;BME280;7846;48.830;9.116;2023-05-01T12:43:58;97600.38;;;22.52;45.51
15489;BME280;7846;48.830;9.116;2023-05-01T12:46:25;97604.88;;;21.17;48.79
15489;BME280;7846;48.830;9.116;2023-05-01T12:48:52;97614.84;;;20.68;49.71
15489;BME280;7846;48.830;9.116;2023-05-01T12:51:20;97623.28;;;20.53;49.85
15489;BME280;7846;48.830;9.116;2023-05-01T12:53:46;97613.91;;;21.05;48.88
15489;BME280;7846;48.830;9.116;2023-05-01T12:56:22;97607.03;;;20.97;49.37
15489;BME280;7846;48.830;9.116;2023-05-01T12:58:49;97606.41;;;21.25;49.06
15489;BME280;7846;48.830;9.116;2023-05-01T13:01:23;97597.22;;;22.15;46.80
15489;BME280;7846;48.830;9.116;2023-05-01T13:03:52;97602.94;;;21.83;47.78
15489;BME280;7846;48.830;9.116;2023-05-01T13:06:18;97604.47;;;21.02;48.91
15489;BME280;7846;48.830;9.116;2023-05-01T13:08:44;97599.88;;;22.27;46.62
15489;BME280;7846;48.830;9.116;2023-05-01T13:11:14;97600.63;;;21.40;48.54
15489;BME280;7846;48.830;9.116;2023-05-01T13:13:44;97594.44;;;21.39;48.84
15489;BME280;7846;48.830;9.116;2023-05-01T13:16:14;97598.94;;;20.73;50.63
15489;BME280;7846;48.830;9.116;2023-05-01T13:18:44;97597.91;;;20.74;51.47
15489;BME280;7846;48.830;9.116;2023-05-01T13:21:13;97593.56;;;20.62;51.40
15489;BME280;7846;48.830;9.116;2023-05-01T13:23:41;97603.78;;;20.65;52.02
15489;BME280;7846;48.830;9.116;2023-05-01T13:26:07;97614.28;;;21.08;51.38
15489;BME280;7846;48.830;9.116;2023-05-01T13:28:42;97616.72;;;20.68;52.53
15489;BME280;7846;48.830;9.116;2023-05-01T13:31:11;97600.00;;;21.26;51.40
15489;BME280;7846;48.830;9.116;2023-05-01T13:33:40;97607.66;;;21.11;53.30
15489;BME280;7846;48.830;9.116;2023-05-01T13:36:11;97608.34;;;20.27;57.63
15489;BME280;7846;48.830;9.116;2023-05-01T13:38:42;97610.88;;;20.41;57.08
15489;BME280;7846;48.830;9.116;2023-05-01T13:41:17;97610.50;;;20.56;56.24
15489;BME280;7846;48.830;9.116;2023-05-01T13:43:44;97605.50;;;20.11;57.43
15489;BME280;7846;48.830;9.116;2023-05-01T13:46:12;97605.09;;;19.45;59.09
15489;BME280;7846;48.830;9.116;2023-05-01T13:48:39;97604.50;;;19.68;59.22
15489;BME280;7846;48.830;9.116;2023-05-01T13:51:06;97605.09;;;19.70;58.12
15489;BME280;7846;48.830;9.116;2023-05-01T13:53:33;97599.91;;;19.75;59.31
15489;BME280;7846;48.830;9.116;2023-05-01T13:55:59;97604.16;;;19.08;59.41